sensor_id;sensor_type;location;lat;lon;timestamp;P1;durP1;ratioP1;P2;durP2;ratioP2
46983;SDS011;34732;52.112;9.366;2023-09-30T10:10:20;9.68;;;2.97;;
46983;SDS011;34732;52.112;9.366;2023-09-30T10:17:20;12.27;;;2.70;;
46983;SDS011;34732;52.112;9.366;2023-09-30T10:20:42;6.00;;;2.35;;
46983;SDS011;34732;52.112;9.366;2023-09-30T10:27:48;6.55;;;2.53;;
46983;SDS011;34732;52.112;9.366;2023-09-30T10:31:21;10.70;;;2.50;;
46983;SDS011;34732;52.112;9.366;2023-09-30T10:34:48;6.43;;;2.72;;
46983;SDS011;34732;52.112;9.366;2023-09-30T10:53:01;5.80;;;2.40;;
46983;SDS011;34732;52.112;9.366;2023-09-30T10:56:34;5.35;;;2.15;;
46983;SDS011;34732;52.112;9.366;2023-09-30T11:00:08;5.20;;;2.55;;
46983;SDS011;34732;52.112;9.366;2023-09-30T11:03:33;6.68;;;2.58;;
46983;SDS011;34732;52.112;9.366;2023-09-30T11:06:55;3.80;;;2.28;;
46983;SDS011;34732;52.112;9.366;2023-09-30T11:10:19;7.15;;;2.15;;
46983;SDS011;34732;52.112;9.366;2023-09-30T11:13:47;7.38;;;2.45;;
46983;SDS011;34732;52.112;9.366;2023-09-30T11:17:16;6.68;;;2.28;;
46983;SDS011;34732;52.112;9.366;2023-09-30T11:20:43;6.53;;;2.00;;
46983;SDS011;34732;52.112;9.366;2023-09-30T11:24:10;8.68;;;2.30;;
46983;SDS011;34732;52.112;9.366;2023-09-30T11:27:32;4.78;;;1.60;;
46983;SDS011;34732;52.112;9.366;2023-09-30T11:30:59;5.25;;;1.83;;
46983;SDS011;34732;52.112;9.366;2023-09-30T11:34:33;5.13;;;1.92;;
46983;SDS011;34732;52.112;9.366;2023-09-30T11:37:56;5.70;;;2.05;;
46983;SDS011;34732;52.112;9.366;2023-09-30T11:41:32;7.13;;;2.00;;
46983;SDS011;34732;52.112;9.366;2023-09-30T11:45:02;4.20;;;2.10;;
46983;SDS011;34732;52.112;9.366;2023-09-30T11:49:02;3.15;;;1.63;;
46983;SDS011;34732;52.112;9.366;2023-09-30T11:52:28;4.25;;;1.80;;
46983;SDS011;34732;52.112;9.366;2023-09-30T11:55:51;4.75;;;1.73;;
46983;SDS011;34732;52.112;9.366;2023-09-30T11:59:19;3.85;;;2.05;;
46983;SDS011;34732;52.112;9.366;2023-09-30T12:02:42;4.90;;;2.22;;
46983;SDS011;34732;52.112;9.366;2023-09-30T12:06:08;3.53;;;1.65;;
46983;SDS011;34732;52.112;9.366;2023-09-30T12:09:36;4.03;;;2.03;;
46983;SDS011;34732;52.112;9.366;2023-09-30T12:13:02;6.60;;;2.63;;
46983;SDS011;34732;52.112;9.366;2023-09-30T12:16:28;8.43;;;3.47;;
46983;SDS011;34732;52.112;9.366;2023-09-30T12:19:52;8.52;;;3.92;;
46983;SDS011;34732;52.112;9.366;2023-09-30T12:23:15;13.95;;;4.35;;
46983;SDS011;34732;52.112;9.366;2023-09-30T12:26:44;12.00;;;4.40;;
46983;SDS011;34732;52.112;9.366;2023-09-30T12:30:11;8.85;;;4.18;;
46983;SDS011;34732;52.112;9.366;2023-09-30T12:33:34;12.13;;;4.43;;
46983;SDS011;34732;52.112;9.366;2023-09-30T12:37:00;11.20;;;4.28;;
46983;SDS011;34732;52.112;9.366;2023-09-30T12:40:26;11.00;;;4.30;;
46983;SDS011;34732;52.112;9.366;2023-09-30T12:43:52;12.05;;;4.47;;
46983;SDS011;34732;52.112;9.366;2023-09-30T12:47:16;12.05;;;5.05;;
46983;SDS011;34732;52.112;9.366;2023-09-30T12:50:41;9.93;;;4.45;;
46983;SDS011;34732;52.112;9.366;2023-09-30T12:54:07;9.55;;;4.18;;
46983;SDS011;34732;52.112;9.366;2023-09-30T12:57:31;12.18;;;4.28;;
46983;SDS011;34732;52.112;9.366;2023-09-30T13:04:16;14.65;;;4.82;;
46983;SDS011;34732;52.112;9.366;2023-09-30T13:07:39;16.17;;;5.57;;
46983;SDS011;34732;52.112;9.366;2023-09-30T13:11:03;13.93;;;5.28;;
46983;SDS011;34732;52.112;9.366;2023-09-30T13:14:30;13.50;;;4.82;;
46983;SDS011;34732;52.112;9.366;2023-09-30T13:17:58;13.15;;;5.18;;
46983;SDS011;34732;52.112;9.366;2023-09-30T13:21:26;12.13;;;5.05;;
46983;SDS011;34732;52.112;9.366;2023-09-30T13:24:52;11.77;;;4.97;;
46983;SDS011;34732;52.112;9.366;2023-09-30T13:28:15;14.20;;;5.10;;
46983;SDS011;34732;52.112;9.366;2023-09-30T13:31:42;10.65;;;4.90;;
46983;SDS011;34732;52.112;9.366;2023-09-30T13:35:04;13.35;;;4.95;;
46983;SDS011;34732;52.112;9.366;2023-09-30T13:38:33;10.43;;;4.90;;
46983;SDS011;34732;52.112;9.366;2023-09-30T13:45:16;10.43;;;4.80;;
46983;SDS011;34732;52.112;9.366;2023-09-30T13:48:39;12.77;;;4.85;;
46983;SDS011;34732;52.112;9.366;2023-09-30T13:52:05;14.32;;;4.82;;
46983;SDS011;34732;52.112;9.366;2023-09-30T13:55:27;11.93;;;4.20;;
46983;SDS011;34732;52.112;9.366;2023-09-30T13:58:51;9.75;;;4.50;;
46983;SDS011;34732;52.112;9.366;2023-09-30T14:02:14;14.10;;;4.57;;
46983;SDS011;34732;52.112;9.366;2023-09-30T14:05:38;13.45;;;4.63;;
46983;SDS011;34732;52.112;9.366;2023-09-30T14:08:59;11.10;;;3.80;;
46983;SDS011;34732;52.112;9.366;2023-09-30T14:12:20;13.18;;;4.05;;
46983;SDS011;34732;52.112;9.366;2023-09-30T14:15:44;8.25;;;3.42;;
46983;SDS011;34732;52.112;9.366;2023-09-30T14:19:07;7.90;;;4.10;;
46983;SDS011;34732;52.112;9.366;2023-09-30T14:22:30;11.35;;;3.90;;
46983;SDS011;34732;52.112;9.366;2023-09-30T14:25:54;10.00;;;3.88;;
46983;SDS011;34732;52.112;9.366;2023-09-30T14:29:27;11.75;;;4.78;;
46983;SDS011;34732;52.112;9.366;2023-09-30T14:36:12;9.82;;;4.18;;
46983;SDS011;34732;52.112;9.366;2023-09-30T14:39:38;7.38;;;3.80;;
46983;SDS011;34732;52.112;9.366;2023-09-30T14:43:01;9.85;;;4.10;;
46983;SDS011;34732;52.112;9.366;2023-09-30T14:46:26;9.65;;;4.22;;
46983;SDS011;34732;52.112;9.366;2023-09-30T14:49:50;8.18;;;3.72;;
46983;SDS011;34732;52.112;9.366;2023-09-30T14:53:12;9.02;;;3.58;;
46983;SDS011;34732;52.112;9.366;2023-09-30T14:56:34;9.05;;;3.90;;
46983;SDS011;34732;52.112;9.366;2023-09-30T14:59:57;8.15;;;3.95;;
46983;SDS011;34732;52.112;9.366;2023-09-30T15:03:20;9.10;;;4.05;;
46983;SDS011;34732;52.112;9.366;2023-09-30T15:06:46;7.90;;;3.50;;
46983;SDS011;34732;52.112;9.366;2023-09-30T15:10:10;9.00;;;3.47;;
46983;SDS011;34732;52.112;9.366;2023-09-30T15:13:35;10.13;;;3.42;;
46983;SDS011;34732;52.112;9.366;2023-09-30T15:16:56;11.52;;;3.63;;
46983;SDS011;34732;52.112;9.366;2023-09-30T15:20:22;5.88;;;3.20;;
46983;SDS011;34732;52.112;9.366;2023-09-30T15:23:48;7.53;;;3.13;;
46983;SDS011;34732;52.112;9.366;2023-09-30T15:27:09;6.53;;;2.85;;
46983;SDS011;34732;52.112;9.366;2023-09-30T15:30:38;6.15;;;2.97;;
46983;SDS011;34732;52.112;9.366;2023-09-30T15:34:04;8.38;;;3.13;;
46983;SDS011;34732;52.112;9.366;2023-09-30T15:37:28;7.75;;;3.05;;
46983;SDS011;34732;52.112;9.366;2023-09-30T15:40:52;7.68;;;3.30;;
46983;SDS011;34732;52.112;9.366;2023-09-30T15:44:20;7.50;;;2.97;;
46983;SDS011;34732;52.112;9.366;2023-09-30T15:47:46;8.07;;;3.20;;
46983;SDS011;34732;52.112;9.366;2023-09-30T15:51:07;7.72;;;3.30;;
46983;SDS011;34732;52.112;9.366;2023-09-30T15:54:35;7.28;;;2.97;;
46983;SDS011;34732;52.112;9.366;2023-09-30T15:57:59;8.13;;;3.00;;
46983;SDS011;34732;52.112;9.366;2023-09-30T16:01:27;4.93;;;3.03;;
46983;SDS011;34732;52.112;9.366;2023-09-30T16:04:53;5.93;;;2.95;;
46983;SDS011;34732;52.112;9.366;2023-09-30T16:08:14;6.40;;;2.42;;
46983;SDS011;34732;52.112;9.366;2023-09-30T16:11:38;10.80;;;3.25;;
46983;SDS011;34732;52.112;9.366;2023-09-30T16:15:02;5.95;;;2.80;;
46983;SDS011;34732;52.112;9.366;2023-09-30T16:18:26;7.88;;;2.78;;
46983;SDS011;34732;52.112;9.366;2023-09-30T16:21:52;6.97;;;2.83;;
46983;SDS011;34732;52.112;9.366;2023-09-30T16:33:00;5.38;;;2.67;;
46983;SDS011;34732;52.112;9.366;2023-09-30T16:36:21;5.28;;;2.72;;
46983;SDS011;34732;52.112;9.366;2023-09-30T16:39:50;4.20;;;2.50;;
46983;SDS011;34732;52.112;9.366;2023-09-30T16:43:16;5.00;;;2.53;;
46983;SDS011;34732;52.112;9.366;2023-09-30T16:46:40;6.18;;;2.63;;
46983;SDS011;34732;52.112;9.366;2023-09-30T16:50:03;5.43;;;2.70;;
46983;SDS011;34732;52.112;9.366;2023-09-30T16:53:26;4.60;;;2.83;;
46983;SDS011;34732;52.112;9.366;2023-09-30T16:56:50;9.20;;;2.80;;
46983;SDS011;34732;52.112;9.366;2023-09-30T17:00:16;8.40;;;2.80;;
46983;SDS011;34732;52.112;9.366;2023-09-30T17:03:42;8.93;;;2.80;;
46983;SDS011;34732;52.112;9.366;2023-09-30T17:07:06;7.13;;;2.80;;
46983;SDS011;34732;52.112;9.366;2023-09-30T17:10:31;7.88;;;2.92;;
46983;SDS011;34732;52.112;9.366;2023-09-30T17:13:58;7.18;;;2.85;;
46983;SDS011;34732;52.112;9.366;2023-09-30T17:17:22;7.60;;;3.15;;
46983;SDS011;34732;52.112;9.366;2023-09-30T17:20:47;6.57;;;3.03;;
46983;SDS011;34732;52.112;9.366;2023-09-30T17:24:13;8.65;;;3.38;;
46983;SDS011;34732;52.112;9.366;2023-09-30T17:27:41;7.18;;;3.17;;
46983;SDS011;34732;52.112;9.366;2023-09-30T17:31:05;5.05;;;2.75;;
46983;SDS011;34732;52.112;9.366;2023-09-30T17:34:27;8.77;;;3.22;;
46983;SDS011;34732;52.112;9.366;2023-09-30T17:37:50;6.32;;;2.60;;
46983;SDS011;34732;52.112;9.366;2023-09-30T17:41:13;9.73;;;3.13;;
46983;SDS011;34732;52.112;9.366;2023-09-30T17:44:39;5.63;;;3.25;;
46983;SDS011;34732;52.112;9.366;2023-09-30T17:48:06;9.82;;;2.92;;
46983;SDS011;34732;52.112;9.366;2023-09-30T17:51:32;7.30;;;3.38;;
46983;SDS011;34732;52.112;9.366;2023-09-30T17:54:58;8.88;;;3.28;;
46983;SDS011;34732;52.112;9.366;2023-09-30T17:58:24;6.55;;;3.08;;
46983;SDS011;34732;52.112;9.366;2023-09-30T18:01:50;6.43;;;3.47;;
46983;SDS011;34732;52.112;9.366;2023-09-30T18:05:11;6.00;;;3.00;;
46983;SDS011;34732;52.112;9.366;2023-09-30T18:08:37;5.55;;;3.20;;
46983;SDS011;34732;52.112;9.366;2023-09-30T18:12:01;6.40;;;2.88;;
46983;SDS011;34732;52.112;9.366;2023-09-30T18:15:28;5.10;;;2.85;;
46983;SDS011;34732;52.112;9.366;2023-09-30T18:18:51;7.53;;;3.08;;
46983;SDS011;34732;52.112;9.366;2023-09-30T18:22:17;5.90;;;2.92;;
46983;SDS011;34732;52.112;9.366;2023-09-30T18:25:40;7.00;;;3.47;;
46983;SDS011;34732;52.112;9.366;2023-09-30T18:29:06;11.80;;;3.13;;
46983;SDS011;34732;52.112;9.366;2023-09-30T18:32:30;6.95;;;3.72;;
46983;SDS011;34732;52.112;9.366;2023-09-30T18:35:54;7.35;;;3.83;;
46983;SDS011;34732;52.112;9.366;2023-09-30T18:39:19;7.10;;;4.22;;
46983;SDS011;34732;52.112;9.366;2023-09-30T18:42:42;6.75;;;3.55;;
